Taikeimaru No.5 — JI3607 — position and weather

sailwx.info

Track history (hours):
 
Tides and Currents Weather Stations Pressure Air Temp Water Temp Dewpoint Dewpoint Depression Visibility Wind Speed Wind Dir Waves Ship Positions

Taikeimaru No.5

Last reported at 2017-Oct-15 16:03 UTC. Time now 2017-Oct-17 05:53 UTC.
Position N 34°36' E 134°55'.

Length 77 m; draft 3.6 m.

Type: Tanker. MMSI: 431300411.

Date/timePositionNaut miles runAvg speedWind from/ knotsBaromVisibWave heightAir tempDewpointWater temp
2017-Oct-15 16:03N 34°36' E 134°55'410.8
2017-Oct-15 15:41N 34°38' E 134°59'2 9.5
2017-Oct-15 15:30N 34°37' E 135°02'4 8.3
2017-Oct-15 15:00N 34°34' E 135°05'1211.3
2017-Oct-15 13:58N 34°23' E 135°02'910.4
2017-Oct-15 13:06N 34°14' E 134°58'210.9
2017-Oct-15 12:56N 34°13' E 134°58'8 0.2
2017-Oct-14 05:14N 34°07' E 135°04'2 9.5
2017-Oct-14 05:00N 34°08' E 135°06'1 0.4
2017-Oct-14 01:18N 34°07' E 135°08'1 2.8
2017-Oct-14 01:00N 34°08' E 135°07'0 0.1
2017-Oct-14 00:30N 34°08' E 135°07'0 0.0
2017-Oct-14 00:00N 34°08' E 135°07'3 6.8
2017-Oct-13 23:30N 34°11' E 135°06'1311.6
2017-Oct-13 22:22N 34°24' E 135°09'512.9
2017-Oct-13 22:00N 34°27' E 135°12'613.0
2017-Oct-13 21:30N 34°31' E 135°19'4 8.3
2017-Oct-13 20:59N 34°31' E 135°24'0 0.0
2017-Oct-13 00:05N 34°31' E 135°24'0 2.2
2017-Oct-12 23:55N 34°31' E 135°24'3 7.2
2017-Oct-12 23:29N 34°31' E 135°20'1 1.9
2017-Oct-12 23:00N 34°31' E 135°19'0 0.0
2017-Oct-12 22:29N 34°31' E 135°19'0 0.0
2017-Oct-12 22:00N 34°31' E 135°19'0 0.0
2017-Oct-12 21:30N 34°31' E 135°19'0 0.0
2017-Oct-12 20:57N 34°31' E 135°19'0 0.0
2017-Oct-12 20:30N 34°31' E 135°19'0 0.0
2017-Oct-12 20:00N 34°31' E 135°19'0 0.0
2017-Oct-12 19:29N 34°31' E 135°19'0 0.0
2017-Oct-12 18:59N 34°31' E 135°19'0 0.0
2017-Oct-12 18:30N 34°31' E 135°19'0 0.1
2017-Oct-12 18:00N 34°31' E 135°19'0 0.1
2017-Oct-12 17:30N 34°31' E 135°19'0 0.0
2017-Oct-12 17:00N 34°31' E 135°19'0 0.1
2017-Oct-12 16:30N 34°31' E 135°19'0 0.0
2017-Oct-12 16:00N 34°31' E 135°19'0 0.0
2017-Oct-12 15:30N 34°31' E 135°19'0 0.0
2017-Oct-12 15:00N 34°31' E 135°19'0 0.0
2017-Oct-12 14:30N 34°31' E 135°19'2 3.3
2017-Oct-12 14:00N 34°31' E 135°18'611.5
2017-Oct-12 13:29N 34°28' E 135°11'611.4
2017-Oct-12 12:59N 34°24' E 135°07'611.3
2017-Oct-12 12:28N 34°19' E 135°02'510.1
2017-Oct-12 11:58N 34°15' E 134°59'  
2017-Oct-09 12:30N 34°18' E 134°59'510.1
2017-Oct-09 11:58N 34°23' E 134°60'510.2
2017-Oct-09 11:29N 34°28' E 135°01'510.0
2017-Oct-09 11:00N 34°33' E 135°02'4 8.9
2017-Oct-09 10:30N 34°37' E 135°01'  
Track history (hours):
 
Tides and Currents Weather Stations Pressure Air Temp Water Temp Dewpoint Dewpoint Depression Visibility Wind Speed Wind Dir Waves Ship Positions

Taikeimaru No.5

Last reported at 2017-Oct-15 16:03 UTC. Time now 2017-Oct-17 05:53 UTC.
Position N 34°36' E 134°55'.

Length 77 m; draft 3.6 m.

Type: Tanker. MMSI: 431300411.

Date/timePositionNaut miles runAvg speedWind from/ knotsBaromVisibWave heightAir tempDewpointWater temp
2017-Oct-15 16:03N 34°36' E 134°55'410.8
2017-Oct-15 15:41N 34°38' E 134°59'2 9.5
2017-Oct-15 15:30N 34°37' E 135°02'4 8.3
2017-Oct-15 15:00N 34°34' E 135°05'1211.3
2017-Oct-15 13:58N 34°23' E 135°02'910.4
2017-Oct-15 13:06N 34°14' E 134°58'210.9
2017-Oct-15 12:56N 34°13' E 134°58'8 0.2
2017-Oct-14 05:14N 34°07' E 135°04'2 9.5
2017-Oct-14 05:00N 34°08' E 135°06'1 0.4
2017-Oct-14 01:18N 34°07' E 135°08'1 2.8
2017-Oct-14 01:00N 34°08' E 135°07'0 0.1
2017-Oct-14 00:30N 34°08' E 135°07'0 0.0
2017-Oct-14 00:00N 34°08' E 135°07'3 6.8
2017-Oct-13 23:30N 34°11' E 135°06'1311.6
2017-Oct-13 22:22N 34°24' E 135°09'512.9
2017-Oct-13 22:00N 34°27' E 135°12'613.0
2017-Oct-13 21:30N 34°31' E 135°19'4 8.3
2017-Oct-13 20:59N 34°31' E 135°24'0 0.0
2017-Oct-13 00:05N 34°31' E 135°24'0 2.2
2017-Oct-12 23:55N 34°31' E 135°24'3 7.2
2017-Oct-12 23:29N 34°31' E 135°20'1 1.9
2017-Oct-12 23:00N 34°31' E 135°19'0 0.0
2017-Oct-12 22:29N 34°31' E 135°19'0 0.0
2017-Oct-12 22:00N 34°31' E 135°19'0 0.0
2017-Oct-12 21:30N 34°31' E 135°19'0 0.0
2017-Oct-12 20:57N 34°31' E 135°19'0 0.0
2017-Oct-12 20:30N 34°31' E 135°19'0 0.0
2017-Oct-12 20:00N 34°31' E 135°19'0 0.0
2017-Oct-12 19:29N 34°31' E 135°19'0 0.0
2017-Oct-12 18:59N 34°31' E 135°19'0 0.0
2017-Oct-12 18:30N 34°31' E 135°19'0 0.1
2017-Oct-12 18:00N 34°31' E 135°19'0 0.1
2017-Oct-12 17:30N 34°31' E 135°19'0 0.0
2017-Oct-12 17:00N 34°31' E 135°19'0 0.1
2017-Oct-12 16:30N 34°31' E 135°19'0 0.0
2017-Oct-12 16:00N 34°31' E 135°19'0 0.0
2017-Oct-12 15:30N 34°31' E 135°19'0 0.0
2017-Oct-12 15:00N 34°31' E 135°19'0 0.0
2017-Oct-12 14:30N 34°31' E 135°19'2 3.3
2017-Oct-12 14:00N 34°31' E 135°18'611.5
2017-Oct-12 13:29N 34°28' E 135°11'611.4
2017-Oct-12 12:59N 34°24' E 135°07'611.3
2017-Oct-12 12:28N 34°19' E 135°02'510.1
2017-Oct-12 11:58N 34°15' E 134°59'  
2017-Oct-09 12:30N 34°18' E 134°59'510.1
2017-Oct-09 11:58N 34°23' E 134°60'510.2
2017-Oct-09 11:29N 34°28' E 135°01'510.0
2017-Oct-09 11:00N 34°33' E 135°02'4 8.9
2017-Oct-09 10:30N 34°37' E 135°01'  

Dump ship's entire track history